sensor_id;sensor_type;location;lat;lon;timestamp;pressure;altitude;pressure_sealevel;temperature;humidity
23318;BME280;11831;55.918;37.746;2023-04-23T00:01:02;99060.44;;;13.55;0.00
23318;BME280;11831;55.918;37.746;2023-04-23T00:03:29;99055.06;;;13.55;0.00
23318;BME280;11831;55.918;37.746;2023-04-23T00:05:57;99059.31;;;13.51;0.00
23318;BME280;11831;55.918;37.746;2023-04-23T00:08:25;99052.38;;;13.55;0.00
23318;BME280;11831;55.918;37.746;2023-04-23T00:10:51;99063.19;;;13.65;0.00
23318;BME280;11831;55.918;37.746;2023-04-23T00:13:18;99064.28;;;13.69;0.00
23318;BME280;11831;55.918;37.746;2023-04-23T00:15:44;99065.31;;;13.63;0.00
23318;BME280;11831;55.918;37.746;2023-04-23T00:18:10;99063.22;;;13.70;0.00
23318;BME280;11831;55.918;37.746;2023-04-23T00:20:36;99066.34;;;13.57;0.00
23318;BME280;11831;55.918;37.746;2023-04-23T00:23:03;99061.56;;;13.64;0.00
23318;BME280;11831;55.918;37.746;2023-04-23T00:25:29;99060.50;;;13.65;0.00
23318;BME280;11831;55.918;37.746;2023-04-23T00:27:55;99061.34;;;13.71;0.00
23318;BME280;11831;55.918;37.746;2023-04-23T00:30:21;99063.41;;;13.58;0.00
23318;BME280;11831;55.918;37.746;2023-04-23T00:32:47;99073.84;;;13.55;0.00
23318;BME280;11831;55.918;37.746;2023-04-23T00:35:13;99075.44;;;13.51;0.00
23318;BME280;11831;55.918;37.746;2023-04-23T00:37:39;99072.13;;;13.44;0.00
23318;BME280;11831;55.918;37.746;2023-04-23T00:40:06;99077.34;;;13.23;0.00
23318;BME280;11831;55.918;37.746;2023-04-23T00:42:32;99075.16;;;13.20;0.00
23318;BME280;11831;55.918;37.746;2023-04-23T00:44:59;99075.66;;;13.17;0.00
23318;BME280;11831;55.918;37.746;2023-04-23T00:47:27;99079.09;;;12.91;0.00
23318;BME280;11831;55.918;37.746;2023-04-23T00:49:54;99076.13;;;12.87;0.00
23318;BME280;11831;55.918;37.746;2023-04-23T00:52:21;99084.59;;;12.79;0.00
23318;BME280;11831;55.918;37.746;2023-04-23T00:54:47;99083.09;;;12.88;0.00
23318;BME280;11831;55.918;37.746;2023-04-23T00:57:13;99089.38;;;12.99;0.00
23318;BME280;11831;55.918;37.746;2023-04-23T00:59:40;99082.91;;;12.95;0.00
23318;BME280;11831;55.918;37.746;2023-04-23T01:02:06;99077.22;;;12.91;0.00
23318;BME280;11831;55.918;37.746;2023-04-23T01:04:32;99083.97;;;12.94;0.00
23318;BME280;11831;55.918;37.746;2023-04-23T01:06:58;99081.28;;;12.94;0.00
23318;BME280;11831;55.918;37.746;2023-04-23T01:09:25;99078.19;;;13.07;0.00
23318;BME280;11831;55.918;37.746;2023-04-23T01:11:52;99080.63;;;13.09;0.00
23318;BME280;11831;55.918;37.746;2023-04-23T01:14:18;99080.56;;;13.25;0.00
23318;BME280;11831;55.918;37.746;2023-04-23T01:16:45;99072.63;;;13.14;0.00
23318;BME280;11831;55.918;37.746;2023-04-23T01:19:11;99080.84;;;13.02;0.00
23318;BME280;11831;55.918;37.746;2023-04-23T01:21:38;99082.53;;;13.13;0.00
23318;BME280;11831;55.918;37.746;2023-04-23T01:24:06;99094.56;;;13.05;0.00
23318;BME280;11831;55.918;37.746;2023-04-23T01:26:33;99087.66;;;12.88;0.00
23318;BME280;11831;55.918;37.746;2023-04-23T01:28:59;99090.41;;;12.71;0.00
23318;BME280;11831;55.918;37.746;2023-04-23T01:31:26;99080.97;;;12.47;0.00
23318;BME280;11831;55.918;37.746;2023-04-23T01:33:52;99076.97;;;12.49;0.00
23318;BME280;11831;55.918;37.746;2023-04-23T01:36:21;99088.38;;;12.56;0.00
23318;BME280;11831;55.918;37.746;2023-04-23T01:38:47;99086.59;;;12.45;0.00
23318;BME280;11831;55.918;37.746;2023-04-23T01:41:13;99085.09;;;12.54;0.00
23318;BME280;11831;55.918;37.746;2023-04-23T01:43:40;99082.34;;;12.49;0.00
23318;BME280;11831;55.918;37.746;2023-04-23T01:46:07;99079.50;;;12.56;0.00
23318;BME280;11831;55.918;37.746;2023-04-23T01:48:33;99083.31;;;12.60;0.00
23318;BME280;11831;55.918;37.746;2023-04-23T01:51:00;99084.16;;;12.43;0.00
23318;BME280;11831;55.918;37.746;2023-04-23T01:53:26;99087.28;;;12.57;0.00
23318;BME280;11831;55.918;37.746;2023-04-23T01:55:52;99099.75;;;12.47;0.00
23318;BME280;11831;55.918;37.746;2023-04-23T01:58:18;99098.62;;;12.42;0.00
23318;BME280;11831;55.918;37.746;2023-04-23T02:00:45;99093.09;;;12.10;0.00
23318;BME280;11831;55.918;37.746;2023-04-23T02:03:11;99094.00;;;11.82;0.00
23318;BME280;11831;55.918;37.746;2023-04-23T02:05:37;99106.00;;;11.80;0.00
23318;BME280;11831;55.918;37.746;2023-04-23T02:08:05;99100.22;;;11.71;0.00
23318;BME280;11831;55.918;37.746;2023-04-23T02:10:32;99112.41;;;12.12;0.00
23318;BME280;11831;55.918;37.746;2023-04-23T02:12:58;99104.53;;;12.06;0.00
23318;BME280;11831;55.918;37.746;2023-04-23T02:15:24;99106.84;;;12.36;0.00
23318;BME280;11831;55.918;37.746;2023-04-23T02:17:50;99099.00;;;12.51;0.00
23318;BME280;11831;55.918;37.746;2023-04-23T02:20:17;99108.97;;;12.34;0.00
23318;BME280;11831;55.918;37.746;2023-04-23T02:22:43;99121.00;;;12.31;0.00
23318;BME280;11831;55.918;37.746;2023-04-23T02:25:10;99112.47;;;12.18;0.00
23318;BME280;11831;55.918;37.746;2023-04-23T02:27:37;99111.91;;;12.32;0.00
23318;BME280;11831;55.918;37.746;2023-04-23T02:30:03;99108.06;;;12.67;0.00
23318;BME280;11831;55.918;37.746;2023-04-23T02:32:29;99106.34;;;12.83;0.00
23318;BME280;11831;55.918;37.746;2023-04-23T02:34:55;99104.44;;;13.00;0.00
23318;BME280;11831;55.918;37.746;2023-04-23T02:37:23;99113.44;;;12.89;0.00
23318;BME280;11831;55.918;37.746;2023-04-23T02:39:49;99112.13;;;12.69;0.00
23318;BME280;11831;55.918;37.746;2023-04-23T02:42:15;99112.94;;;12.92;0.00
23318;BME280;11831;55.918;37.746;2023-04-23T02:44:42;99120.47;;;12.95;0.00
23318;BME280;11831;55.918;37.746;2023-04-23T02:47:08;99121.59;;;12.99;0.00
23318;BME280;11831;55.918;37.746;2023-04-23T02:49:34;99120.34;;;13.28;0.00
23318;BME280;11831;55.918;37.746;2023-04-23T02:52:01;99122.91;;;13.18;0.00
23318;BME280;11831;55.918;37.746;2023-04-23T02:54:27;99117.53;;;12.74;0.00
23318;BME280;11831;55.918;37.746;2023-04-23T02:56:53;99113.94;;;12.86;0.00
23318;BME280;11831;55.918;37.746;2023-04-23T02:59:19;99115.06;;;12.90;0.00
23318;BME280;11831;55.918;37.746;2023-04-23T03:01:45;99126.75;;;13.05;0.00
23318;BME280;11831;55.918;37.746;2023-04-23T03:04:11;99127.22;;;13.19;0.00
23318;BME280;11831;55.918;37.746;2023-04-23T03:06:37;99122.09;;;12.74;0.00
23318;BME280;11831;55.918;37.746;2023-04-23T03:09:03;99135.19;;;12.92;0.00
23318;BME280;11831;55.918;37.746;2023-04-23T03:11:30;99132.56;;;12.75;0.00
23318;BME280;11831;55.918;37.746;2023-04-23T03:13:56;99130.44;;;12.78;0.00
23318;BME280;11831;55.918;37.746;2023-04-23T03:16:22;99137.13;;;12.75;0.00
23318;BME280;11831;55.918;37.746;2023-04-23T03:18:48;99137.03;;;12.87;0.00
23318;BME280;11831;55.918;37.746;2023-04-23T03:21:14;99144.12;;;12.98;0.00
23318;BME280;11831;55.918;37.746;2023-04-23T03:23:40;99147.22;;;13.33;0.00
23318;BME280;11831;55.918;37.746;2023-04-23T03:26:07;99148.75;;;13.24;0.00
23318;BME280;11831;55.918;37.746;2023-04-23T03:28:33;99152.16;;;12.98;0.00
23318;BME280;11831;55.918;37.746;2023-04-23T03:30:59;99153.69;;;12.89;0.00
23318;BME280;11831;55.918;37.746;2023-04-23T03:33:25;99145.63;;;12.89;0.00
23318;BME280;11831;55.918;37.746;2023-04-23T03:35:51;99150.81;;;12.95;0.00
23318;BME280;11831;55.918;37.746;2023-04-23T03:38:17;99164.31;;;12.84;0.00
23318;BME280;11831;55.918;37.746;2023-04-23T03:40:44;99160.16;;;12.71;0.00
23318;BME280;11831;55.918;37.746;2023-04-23T03:43:10;99161.56;;;12.79;0.00
23318;BME280;11831;55.918;37.746;2023-04-23T03:45:37;99166.00;;;13.12;0.00
23318;BME280;11831;55.918;37.746;2023-04-23T03:48:03;99169.53;;;12.90;0.00
23318;BME280;11831;55.918;37.746;2023-04-23T03:50:29;99167.00;;;13.05;0.00
23318;BME280;11831;55.918;37.746;2023-04-23T03:52:59;99171.22;;;12.96;0.00
23318;BME280;11831;55.918;37.746;2023-04-23T03:55:27;99172.69;;;13.09;0.00
23318;BME280;11831;55.918;37.746;2023-04-23T03:57:53;99172.06;;;13.19;0.00
23318;BME280;11831;55.918;37.746;2023-04-23T04:00:19;99176.94;;;13.05;0.00
23318;BME280;11831;55.918;37.746;2023-04-23T04:02:46;99179.44;;;12.90;0.00
23318;BME280;11831;55.918;37.746;2023-04-23T04:05:12;99183.91;;;13.23;0.00
23318;BME280;11831;55.918;37.746;2023-04-23T04:07:38;99185.44;;;12.97;0.00
23318;BME280;11831;55.918;37.746;2023-04-23T04:10:06;99186.94;;;12.88;0.00
23318;BME280;11831;55.918;37.746;2023-04-23T04:12:32;99187.28;;;12.74;0.00
23318;BME280;11831;55.918;37.746;2023-04-23T04:14:58;99189.28;;;13.06;0.00
23318;BME280;11831;55.918;37.746;2023-04-23T04:17:24;99196.06;;;12.87;0.00
23318;BME280;11831;55.918;37.746;2023-04-23T04:19:51;99198.75;;;12.70;0.00
23318;BME280;11831;55.918;37.746;2023-04-23T04:22:17;99197.81;;;12.81;0.00
23318;BME280;11831;55.918;37.746;2023-04-23T04:24:43;99195.97;;;13.03;0.00
23318;BME280;11831;55.918;37.746;2023-04-23T04:27:12;99197.59;;;13.04;0.00
23318;BME280;11831;55.918;37.746;2023-04-23T04:29:38;99200.81;;;12.85;0.00
23318;BME280;11831;55.918;37.746;2023-04-23T04:32:08;99202.97;;;13.04;0.00
23318;BME280;11831;55.918;37.746;2023-04-23T04:34:34;99199.81;;;13.29;0.00
23318;BME280;11831;55.918;37.746;2023-04-23T04:37:02;99202.13;;;13.21;0.00
23318;BME280;11831;55.918;37.746;2023-04-23T04:39:28;99199.44;;;13.21;0.00
23318;BME280;11831;55.918;37.746;2023-04-23T04:41:55;99209.47;;;13.09;0.00
23318;BME280;11831;55.918;37.746;2023-04-23T04:44:22;99209.28;;;12.93;0.00
23318;BME280;11831;55.918;37.746;2023-04-23T04:46:48;99213.00;;;13.14;0.00
23318;BME280;11831;55.918;37.746;2023-04-23T04:49:14;99212.56;;;13.17;0.00
23318;BME280;11831;55.918;37.746;2023-04-23T04:51:42;99207.72;;;13.41;0.00
23318;BME280;11831;55.918;37.746;2023-04-23T04:54:09;99212.22;;;13.57;0.00
23318;BME280;11831;55.918;37.746;2023-04-23T04:56:35;99214.03;;;13.52;0.00
23318;BME280;11831;55.918;37.746;2023-04-23T04:59:01;99223.97;;;13.78;0.00
23318;BME280;11831;55.918;37.746;2023-04-23T05:01:27;99222.50;;;13.92;0.00
23318;BME280;11831;55.918;37.746;2023-04-23T05:03:54;99227.06;;;14.24;0.00
23318;BME280;11831;55.918;37.746;2023-04-23T05:06:20;99230.69;;;14.40;0.00
23318;BME280;11831;55.918;37.746;2023-04-23T05:08:47;99228.38;;;14.48;0.00
23318;BME280;11831;55.918;37.746;2023-04-23T05:11:13;99233.00;;;14.26;0.00
23318;BME280;11831;55.918;37.746;2023-04-23T05:13:40;99231.44;;;14.35;0.00
23318;BME280;11831;55.918;37.746;2023-04-23T05:16:06;99232.66;;;14.44;0.00
23318;BME280;11831;55.918;37.746;2023-04-23T05:18:32;99237.19;;;14.12;0.00
23318;BME280;11831;55.918;37.746;2023-04-23T05:20:59;99236.16;;;14.18;0.00
23318;BME280;11831;55.918;37.746;2023-04-23T05:23:25;99242.44;;;14.28;0.00
23318;BME280;11831;55.918;37.746;2023-04-23T05:25:51;99246.78;;;14.35;0.00
23318;BME280;11831;55.918;37.746;2023-04-23T05:28:20;99244.25;;;14.92;0.00
23318;BME280;11831;55.918;37.746;2023-04-23T05:30:46;99235.88;;;14.88;0.00
23318;BME280;11831;55.918;37.746;2023-04-23T05:33:13;99247.22;;;14.96;0.00
23318;BME280;11831;55.918;37.746;2023-04-23T05:35:39;99236.84;;;15.19;0.00
23318;BME280;11831;55.918;37.746;2023-04-23T05:38:05;99240.34;;;15.20;0.00
23318;BME280;11831;55.918;37.746;2023-04-23T05:40:31;99247.81;;;15.03;0.00
23318;BME280;11831;55.918;37.746;2023-04-23T05:42:58;99252.50;;;15.28;0.00
23318;BME280;11831;55.918;37.746;2023-04-23T05:45:24;99246.75;;;15.61;0.00
23318;BME280;11831;55.918;37.746;2023-04-23T05:47:50;99247.25;;;15.58;0.00
23318;BME280;11831;55.918;37.746;2023-04-23T05:50:17;99252.69;;;15.73;0.00
23318;BME280;11831;55.918;37.746;2023-04-23T05:52:43;99244.34;;;15.70;0.00
23318;BME280;11831;55.918;37.746;2023-04-23T05:55:09;99251.16;;;16.33;0.00
23318;BME280;11831;55.918;37.746;2023-04-23T05:57:36;99250.75;;;17.21;0.00
23318;BME280;11831;55.918;37.746;2023-04-23T06:00:03;99252.00;;;17.49;0.00
23318;BME280;11831;55.918;37.746;2023-04-23T06:02:38;99263.47;;;17.11;0.00
23318;BME280;11831;55.918;37.746;2023-04-23T06:05:04;99251.34;;;17.73;0.00
23318;BME280;11831;55.918;37.746;2023-04-23T06:07:31;99252.69;;;18.19;0.00
23318;BME280;11831;55.918;37.746;2023-04-23T06:09:57;99255.28;;;17.95;0.00
23318;BME280;11831;55.918;37.746;2023-04-23T06:12:24;99261.81;;;18.28;0.00
23318;BME280;11831;55.918;37.746;2023-04-23T06:14:53;99262.97;;;17.73;0.00
23318;BME280;11831;55.918;37.746;2023-04-23T06:17:19;99258.94;;;17.65;0.00
23318;BME280;11831;55.918;37.746;2023-04-23T06:19:45;99264.78;;;17.88;0.00
23318;BME280;11831;55.918;37.746;2023-04-23T06:22:11;99270.81;;;17.80;0.00
23318;BME280;11831;55.918;37.746;2023-04-23T06:24:37;99275.47;;;18.13;0.00
23318;BME280;11831;55.918;37.746;2023-04-23T06:27:04;99272.06;;;18.31;0.00
23318;BME280;11831;55.918;37.746;2023-04-23T06:29:30;99272.56;;;18.73;0.00
23318;BME280;11831;55.918;37.746;2023-04-23T06:31:56;99276.19;;;17.85;0.00
23318;BME280;11831;55.918;37.746;2023-04-23T06:34:22;99275.41;;;18.18;0.00
23318;BME280;11831;55.918;37.746;2023-04-23T06:36:49;99275.88;;;17.91;0.00
23318;BME280;11831;55.918;37.746;2023-04-23T06:39:15;99277.84;;;17.71;0.00
23318;BME280;11831;55.918;37.746;2023-04-23T06:41:41;99283.81;;;17.67;0.00
23318;BME280;11831;55.918;37.746;2023-04-23T06:44:08;99279.38;;;18.31;0.00
23318;BME280;11831;55.918;37.746;2023-04-23T06:46:34;99281.50;;;18.34;0.00
23318;BME280;11831;55.918;37.746;2023-04-23T06:49:00;99282.66;;;18.28;0.00
23318;BME280;11831;55.918;37.746;2023-04-23T06:51:27;99278.47;;;18.46;0.00
23318;BME280;11831;55.918;37.746;2023-04-23T06:53:53;99292.81;;;18.80;0.00
23318;BME280;11831;55.918;37.746;2023-04-23T06:56:19;99291.84;;;18.27;0.00
23318;BME280;11831;55.918;37.746;2023-04-23T06:58:46;99296.53;;;18.16;0.00
23318;BME280;11831;55.918;37.746;2023-04-23T07:01:13;99285.28;;;18.38;0.00
23318;BME280;11831;55.918;37.746;2023-04-23T07:03:39;99292.03;;;18.41;0.00
23318;BME280;11831;55.918;37.746;2023-04-23T07:06:09;99289.03;;;18.08;0.00
23318;BME280;11831;55.918;37.746;2023-04-23T07:08:35;99293.59;;;18.13;0.00
23318;BME280;11831;55.918;37.746;2023-04-23T07:11:01;99295.03;;;18.39;0.00
23318;BME280;11831;55.918;37.746;2023-04-23T07:13:28;99302.09;;;18.30;0.00
23318;BME280;11831;55.918;37.746;2023-04-23T07:15:54;99300.72;;;18.38;0.00
23318;BME280;11831;55.918;37.746;2023-04-23T07:18:20;99305.06;;;18.73;0.00
23318;BME280;11831;55.918;37.746;2023-04-23T07:20:46;99302.25;;;19.12;0.00
23318;BME280;11831;55.918;37.746;2023-04-23T07:23:12;99303.34;;;19.11;0.00
23318;BME280;11831;55.918;37.746;2023-04-23T07:25:38;99306.66;;;19.32;0.00
23318;BME280;11831;55.918;37.746;2023-04-23T07:28:04;99308.59;;;19.74;0.00
23318;BME280;11831;55.918;37.746;2023-04-23T07:30:30;99293.66;;;20.33;0.00
23318;BME280;11831;55.918;37.746;2023-04-23T07:32:56;99297.28;;;19.43;0.00
23318;BME280;11831;55.918;37.746;2023-04-23T07:35:22;99301.75;;;20.70;0.00
23318;BME280;11831;55.918;37.746;2023-04-23T07:37:48;99295.09;;;19.69;0.00
23318;BME280;11831;55.918;37.746;2023-04-23T07:40:19;99292.50;;;19.35;0.00
23318;BME280;11831;55.918;37.746;2023-04-23T07:42:46;99301.41;;;21.04;0.00
23318;BME280;11831;55.918;37.746;2023-04-23T07:45:12;99295.59;;;21.80;0.00
23318;BME280;11831;55.918;37.746;2023-04-23T07:47:38;99298.09;;;22.04;0.00
23318;BME280;11831;55.918;37.746;2023-04-23T07:50:04;99290.88;;;21.17;0.00
23318;BME280;11831;55.918;37.746;2023-04-23T07:52:31;99304.12;;;20.91;0.00
23318;BME280;11831;55.918;37.746;2023-04-23T07:54:57;99299.44;;;20.45;0.00
23318;BME280;11831;55.918;37.746;2023-04-23T07:57:23;99307.00;;;21.68;0.00
23318;BME280;11831;55.918;37.746;2023-04-23T07:59:49;99299.19;;;21.06;0.00
23318;BME280;11831;55.918;37.746;2023-04-23T08:02:15;99292.25;;;20.54;0.00
23318;BME280;11831;55.918;37.746;2023-04-23T08:04:43;99289.09;;;20.28;0.00
23318;BME280;11831;55.918;37.746;2023-04-23T08:07:09;99293.09;;;21.42;0.00
23318;BME280;11831;55.918;37.746;2023-04-23T08:09:36;99305.09;;;20.11;0.00
23318;BME280;11831;55.918;37.746;2023-04-23T08:12:02;99307.84;;;21.08;0.00
23318;BME280;11831;55.918;37.746;2023-04-23T08:14:28;99294.38;;;21.03;0.00
23318;BME280;11831;55.918;37.746;2023-04-23T08:16:54;99297.34;;;21.76;0.00
23318;BME280;11831;55.918;37.746;2023-04-23T08:19:21;99303.12;;;22.10;0.00
23318;BME280;11831;55.918;37.746;2023-04-23T08:21:47;99309.59;;;21.73;0.00
23318;BME280;11831;55.918;37.746;2023-04-23T08:24:13;99302.94;;;21.93;0.00
23318;BME280;11831;55.918;37.746;2023-04-23T08:26:39;99304.06;;;22.28;0.00
23318;BME280;11831;55.918;37.746;2023-04-23T08:29:06;99298.63;;;21.78;0.00
23318;BME280;11831;55.918;37.746;2023-04-23T08:31:32;99294.56;;;21.07;0.00
23318;BME280;11831;55.918;37.746;2023-04-23T08:33:58;99282.59;;;21.08;0.00
23318;BME280;11831;55.918;37.746;2023-04-23T08:36:24;99294.53;;;22.17;0.00
23318;BME280;11831;55.918;37.746;2023-04-23T08:38:51;99290.66;;;21.68;0.00
23318;BME280;11831;55.918;37.746;2023-04-23T08:41:17;99314.84;;;21.69;0.00
23318;BME280;11831;55.918;37.746;2023-04-23T08:43:46;99298.22;;;23.10;0.00
23318;BME280;11831;55.918;37.746;2023-04-23T08:46:16;99296.62;;;22.65;0.00
23318;BME280;11831;55.918;37.746;2023-04-23T08:48:43;99304.62;;;23.14;0.00
23318;BME280;11831;55.918;37.746;2023-04-23T08:51:09;99286.00;;;22.10;39.89
23318;BME280;11831;55.918;37.746;2023-04-23T08:53:38;99286.88;;;22.41;0.00
23318;BME280;11831;55.918;37.746;2023-04-23T08:56:08;99290.34;;;21.83;41.13
23318;BME280;11831;55.918;37.746;2023-04-23T08:58:34;99290.16;;;21.80;40.45
23318;BME280;11831;55.918;37.746;2023-04-23T09:01:01;99283.19;;;21.87;40.48
23318;BME280;11831;55.918;37.746;2023-04-23T09:03:28;99285.25;;;22.18;0.00
23318;BME280;11831;55.918;37.746;2023-04-23T09:05:54;99286.03;;;21.14;40.43
23318;BME280;11831;55.918;37.746;2023-04-23T09:08:20;99276.25;;;21.67;39.34
23318;BME280;11831;55.918;37.746;2023-04-23T09:10:46;99278.69;;;21.14;39.35
23318;BME280;11831;55.918;37.746;2023-04-23T09:13:15;99286.75;;;21.74;41.41
23318;BME280;11831;55.918;37.746;2023-04-23T09:15:41;99300.53;;;22.95;0.00
23318;BME280;11831;55.918;37.746;2023-04-23T09:18:09;99282.41;;;22.45;0.00
23318;BME280;11831;55.918;37.746;2023-04-23T09:20:35;99293.81;;;22.70;0.00
23318;BME280;11831;55.918;37.746;2023-04-23T09:23:05;99295.94;;;22.14;0.00
23318;BME280;11831;55.918;37.746;2023-04-23T09:25:32;99282.91;;;22.47;41.58
23318;BME280;11831;55.918;37.746;2023-04-23T09:27:58;99279.81;;;22.40;41.54
23318;BME280;11831;55.918;37.746;2023-04-23T09:30:26;99279.56;;;22.06;0.00
23318;BME280;11831;55.918;37.746;2023-04-23T09:32:52;99276.22;;;22.09;0.00
23318;BME280;11831;55.918;37.746;2023-04-23T09:35:18;99265.81;;;22.11;39.88
23318;BME280;11831;55.918;37.746;2023-04-23T09:37:45;99261.28;;;22.28;39.76
23318;BME280;11831;55.918;37.746;2023-04-23T09:40:16;99269.06;;;22.88;0.00
23318;BME280;11831;55.918;37.746;2023-04-23T09:42:51;99258.81;;;22.18;0.00
23318;BME280;11831;55.918;37.746;2023-04-23T09:45:19;99265.31;;;22.31;0.00
23318;BME280;11831;55.918;37.746;2023-04-23T09:47:55;99269.34;;;21.34;40.84
23318;BME280;11831;55.918;37.746;2023-04-23T09:50:42;99259.69;;;21.91;41.32
23318;BME280;11831;55.918;37.746;2023-04-23T09:53:08;99285.94;;;23.30;0.00
23318;BME280;11831;55.918;37.746;2023-04-23T09:55:37;99256.34;;;21.94;40.32
23318;BME280;11831;55.918;37.746;2023-04-23T09:58:05;99265.69;;;22.60;40.25
23318;BME280;11831;55.918;37.746;2023-04-23T10:00:32;99255.03;;;22.50;41.10
23318;BME280;11831;55.918;37.746;2023-04-23T10:02:58;99248.53;;;21.79;40.32
23318;BME280;11831;55.918;37.746;2023-04-23T10:05:25;99258.81;;;22.18;40.49
23318;BME280;11831;55.918;37.746;2023-04-23T10:07:52;99253.34;;;22.85;0.00
23318;BME280;11831;55.918;37.746;2023-04-23T10:10:18;99241.63;;;21.59;40.31
23318;BME280;11831;55.918;37.746;2023-04-23T10:12:45;99236.25;;;21.82;40.31
23318;BME280;11831;55.918;37.746;2023-04-23T10:15:12;99247.37;;;22.52;0.00
23318;BME280;11831;55.918;37.746;2023-04-23T10:17:39;99246.59;;;22.60;0.00
23318;BME280;11831;55.918;37.746;2023-04-23T10:20:06;99238.22;;;22.26;0.00
23318;BME280;11831;55.918;37.746;2023-04-23T10:22:34;99235.91;;;22.95;0.00
23318;BME280;11831;55.918;37.746;2023-04-23T10:25:03;99228.50;;;22.34;0.00
23318;BME280;11831;55.918;37.746;2023-04-23T10:27:35;99235.22;;;23.95;0.00
23318;BME280;11831;55.918;37.746;2023-04-23T10:30:03;99248.91;;;22.67;40.65
23318;BME280;11831;55.918;37.746;2023-04-23T10:32:30;99251.22;;;22.51;40.63
23318;BME280;11831;55.918;37.746;2023-04-23T10:34:58;99257.69;;;23.92;0.00
23318;BME280;11831;55.918;37.746;2023-04-23T10:37:24;99256.88;;;23.74;0.00
23318;BME280;11831;55.918;37.746;2023-04-23T10:39:52;99245.13;;;24.60;0.00
23318;BME280;11831;55.918;37.746;2023-04-23T10:42:19;99246.06;;;23.03;39.87
23318;BME280;11831;55.918;37.746;2023-04-23T10:44:45;99247.88;;;23.73;0.00
23318;BME280;11831;55.918;37.746;2023-04-23T10:47:15;99243.22;;;23.17;38.75
23318;BME280;11831;55.918;37.746;2023-04-23T10:49:41;99233.59;;;24.11;41.31
23318;BME280;11831;55.918;37.746;2023-04-23T10:54:34;99228.78;;;24.34;0.00
23318;BME280;11831;55.918;37.746;2023-04-23T10:57:02;99231.81;;;23.72;0.00
23318;BME280;11831;55.918;37.746;2023-04-23T10:59:29;99237.44;;;23.75;0.00
23318;BME280;11831;55.918;37.746;2023-04-23T11:01:56;99229.28;;;23.93;0.00
23318;BME280;11831;55.918;37.746;2023-04-23T11:04:26;99231.19;;;24.09;39.98
23318;BME280;11831;55.918;37.746;2023-04-23T11:06:54;99218.97;;;24.41;37.60
23318;BME280;11831;55.918;37.746;2023-04-23T11:09:28;99212.41;;;24.89;0.00
23318;BME280;11831;55.918;37.746;2023-04-23T11:11:55;99216.28;;;24.88;37.25
23318;BME280;11831;55.918;37.746;2023-04-23T11:14:32;99212.28;;;25.95;0.00
23318;BME280;11831;55.918;37.746;2023-04-23T11:17:00;99227.47;;;25.42;39.73
23318;BME280;11831;55.918;37.746;2023-04-23T11:19:26;99232.13;;;25.12;40.65
23318;BME280;11831;55.918;37.746;2023-04-23T11:22:04;99222.44;;;26.15;41.16
23318;BME280;11831;55.918;37.746;2023-04-23T11:24:34;99206.47;;;25.96;0.00
23318;BME280;11831;55.918;37.746;2023-04-23T11:27:05;99224.16;;;26.98;0.00
23318;BME280;11831;55.918;37.746;2023-04-23T11:29:32;99222.44;;;26.48;37.32
23318;BME280;11831;55.918;37.746;2023-04-23T11:31:59;99218.41;;;26.79;37.29
23318;BME280;11831;55.918;37.746;2023-04-23T11:34:25;99210.44;;;27.22;37.42
23318;BME280;11831;55.918;37.746;2023-04-23T11:36:52;99232.28;;;27.07;35.12
23318;BME280;11831;55.918;37.746;2023-04-23T11:39:20;99230.19;;;28.89;39.33
23318;BME280;11831;55.918;37.746;2023-04-23T11:41:46;99232.63;;;28.62;34.01
23318;BME280;11831;55.918;37.746;2023-04-23T11:44:12;99229.03;;;29.05;34.73
23318;BME280;11831;55.918;37.746;2023-04-23T11:46:38;99210.78;;;28.69;32.78
23318;BME280;11831;55.918;37.746;2023-04-23T11:49:04;99206.22;;;29.05;32.37
23318;BME280;11831;55.918;37.746;2023-04-23T11:51:31;99211.34;;;29.06;32.39
23318;BME280;11831;55.918;37.746;2023-04-23T11:54:03;99225.31;;;30.19;36.21
23318;BME280;11831;55.918;37.746;2023-04-23T11:56:30;99208.63;;;30.12;34.42
23318;BME280;11831;55.918;37.746;2023-04-23T11:58:59;99213.94;;;30.85;31.93
23318;BME280;11831;55.918;37.746;2023-04-23T12:01:41;99238.34;;;29.48;33.40
23318;BME280;11831;55.918;37.746;2023-04-23T12:04:23;99218.00;;;30.49;36.22
23318;BME280;11831;55.918;37.746;2023-04-23T12:06:50;99204.03;;;30.81;34.05
23318;BME280;11831;55.918;37.746;2023-04-23T12:09:17;99202.22;;;29.88;30.90
23318;BME280;11831;55.918;37.746;2023-04-23T12:11:44;99196.78;;;30.31;30.47
23318;BME280;11831;55.918;37.746;2023-04-23T12:14:11;99204.53;;;29.00;30.97
23318;BME280;11831;55.918;37.746;2023-04-23T12:16:38;99221.38;;;30.39;33.14
23318;BME280;11831;55.918;37.746;2023-04-23T12:19:08;99209.19;;;30.40;31.50
23318;BME280;11831;55.918;37.746;2023-04-23T12:21:45;99208.47;;;29.85;30.97
23318;BME280;11831;55.918;37.746;2023-04-23T12:24:12;99197.09;;;30.68;32.25
23318;BME280;11831;55.918;37.746;2023-04-23T12:26:38;99205.94;;;30.57;33.68
23318;BME280;11831;55.918;37.746;2023-04-23T12:29:06;99206.09;;;30.87;34.03
23318;BME280;11831;55.918;37.746;2023-04-23T12:31:32;99211.66;;;29.87;32.20
23318;BME280;11831;55.918;37.746;2023-04-23T12:34:02;99196.50;;;30.36;30.77
23318;BME280;11831;55.918;37.746;2023-04-23T12:36:29;99195.41;;;30.40;30.60
23318;BME280;11831;55.918;37.746;2023-04-23T12:41:41;99187.00;;;30.33;28.66
23318;BME280;11831;55.918;37.746;2023-04-23T12:44:07;99188.88;;;29.71;29.58
23318;BME280;11831;55.918;37.746;2023-04-23T12:46:33;99200.19;;;29.85;32.05
23318;BME280;11831;55.918;37.746;2023-04-23T12:48:59;99187.41;;;29.96;30.47
23318;BME280;11831;55.918;37.746;2023-04-23T12:51:25;99195.84;;;30.88;31.08
23318;BME280;11831;55.918;37.746;2023-04-23T12:53:51;99181.34;;;30.68;29.88
23318;BME280;11831;55.918;37.746;2023-04-23T12:56:18;99178.06;;;31.08;28.34
23318;BME280;11831;55.918;37.746;2023-04-23T12:58:44;99178.22;;;30.70;30.90
23318;BME280;11831;55.918;37.746;2023-04-23T13:01:11;99183.75;;;31.45;32.24